Time;durP1;ratioP1;P1;durP2;ratioP2;P2;SDS_P1;SDS_P2;PMS_P1;PMS_P2;Temp;Humidity;BMP_temperature;BMP_pressure;BME280_temperature;BME280_humidity;BME280_pressure;Samples;Min_cycle;Max_cycle;Signal;HPM_P1;HPM_P2
2022/04/09 00:00:15;;;;;;;1.45;1.35;;;14.20;99.90;;;;;;5082218;28;20386;-79
2022/04/09 00:02:41;;;;;;;0.00;0.00;;;14.10;99.90;;;;;;5102912;28;20079;-79
2022/04/09 00:05:11;;;;;;;0.00;0.00;;;14.10;99.90;;;;;;5096711;28;20538;-79
2022/04/09 00:07:38;;;;;;;0.00;0.00;;;14.20;99.90;;;;;;5114742;28;20474;-79
2022/04/09 00:10:06;;;;;;;0.00;0.00;;;14.30;99.90;;;;;;5109629;28;20442;-79
2022/04/09 00:12:32;;;;;;;25.60;22.80;;;14.20;99.90;;;;;;5097537;28;20027;-78
2022/04/09 00:14:58;;;;;;;0.00;0.00;;;13.90;99.90;;;;;;5113897;28;20578;-79
2022/04/09 00:17:25;;;;;;;0.00;0.00;;;13.80;99.90;;;;;;5089138;28;20020;-79
2022/04/09 00:19:52;;;;;;;0.00;0.00;;;14.00;99.90;;;;;;5083313;28;20106;-78
2022/04/09 00:22:19;;;;;;;0.00;0.00;;;14.00;99.90;;;;;;5097392;28;20421;-78
2022/04/09 00:24:45;;;;;;;0.00;0.00;;;13.80;99.90;;;;;;5115914;28;20031;-79
2022/04/09 00:27:13;;;;;;;0.00;0.00;;;13.90;99.90;;;;;;5097595;28;20114;-79
2022/04/09 00:29:40;;;;;;;0.00;0.00;;;14.00;99.90;;;;;;5091128;28;20059;-79
2022/04/09 00:32:06;;;;;;;0.35;0.35;;;13.90;99.90;;;;;;5115133;28;20381;-79
2022/04/09 00:34:32;;;;;;;1.27;1.08;;;13.70;99.90;;;;;;5113106;28;20319;-79
2022/04/09 00:36:58;;;;;;;0.85;0.85;;;13.80;99.90;;;;;;5114226;28;20098;-79
2022/04/09 00:39:24;;;;;;;9.32;8.77;;;14.00;99.90;;;;;;5085064;28;20435;-79
2022/04/09 00:41:50;;;;;;;0.10;0.10;;;14.10;99.90;;;;;;5084007;28;20084;-80
2022/04/09 00:44:21;;;;;;;0.00;0.00;;;14.20;99.90;;;;;;5103960;28;20028;-79
2022/04/09 00:46:47;;;;;;;0.00;0.00;;;14.10;99.90;;;;;;5097611;28;20382;-79
2022/04/09 00:49:16;;;;;;;0.00;0.00;;;14.00;99.90;;;;;;5089418;28;20030;-79
2022/04/09 00:51:44;;;;;;;11.70;11.00;;;14.20;99.90;;;;;;5101888;28;20032;-79
2022/04/09 00:54:14;;;;;;;4.05;3.88;;;14.30;99.90;;;;;;5100205;28;20028;-78
2022/04/09 00:56:44;;;;;;;0.75;0.75;;;14.40;99.90;;;;;;5105215;28;20043;-79
2022/04/09 00:59:11;;;;;;;0.15;0.15;;;14.40;99.90;;;;;;5078398;28;20489;-78
2022/04/09 01:01:41;;;;;;;40.08;37.17;;;14.40;99.90;;;;;;5108067;28;20443;-78
2022/04/09 01:04:09;;;;;;;8.48;8.05;;;14.20;99.90;;;;;;5105322;28;20024;-78
2022/04/09 01:06:36;;;;;;;1.00;0.98;;;14.40;99.90;;;;;;5091381;28;20042;-79
2022/04/09 01:09:03;;;;;;;0.00;0.00;;;14.60;99.90;;;;;;5099048;28;20024;-78
2022/04/09 01:11:30;;;;;;;0.40;0.40;;;14.80;99.90;;;;;;5106096;28;20027;-79
2022/04/09 01:13:56;;;;;;;2.17;2.08;;;14.80;99.90;;;;;;5107962;28;20797;-78
2022/04/09 01:16:24;;;;;;;0.32;0.32;;;14.90;99.90;;;;;;5103244;28;20474;-78
2022/04/09 01:18:50;;;;;;;0.38;0.38;;;15.00;99.90;;;;;;5106209;28;20440;-79
2022/04/09 01:21:16;;;;;;;0.20;0.17;;;15.10;99.90;;;;;;5101365;28;20032;-78
2022/04/09 01:23:42;;;;;;;0.00;0.00;;;15.20;99.90;;;;;;5104142;28;20020;-79
2022/04/09 01:26:08;;;;;;;0.00;0.00;;;15.30;99.90;;;;;;5107120;28;20032;-79
2022/04/09 01:28:37;;;;;;;0.00;0.00;;;15.30;99.90;;;;;;5111481;28;20111;-79
2022/04/09 01:31:03;;;;;;;0.52;0.52;;;15.20;99.90;;;;;;5087223;28;20035;-79
2022/04/09 01:33:29;;;;;;;0.00;0.00;;;15.30;99.90;;;;;;5106765;28;20452;-79
2022/04/09 01:35:55;;;;;;;3.10;1.23;;;15.40;99.90;;;;;;5083937;28;20126;-78
2022/04/09 01:38:21;;;;;;;21.55;4.38;;;15.50;99.90;;;;;;5100813;28;20069;-78
2022/04/09 03:33:20;;;;;;;2.20;2.10;;;17.70;99.90;;;;;;5093963;28;20098;-79
2022/04/09 03:35:47;;;;;;;6.25;5.78;;;17.90;99.90;;;;;;5096057;28;20509;-79
2022/04/09 03:38:14;;;;;;;0.00;0.00;;;18.00;99.90;;;;;;5098060;28;20027;-80
2022/04/09 03:40:40;;;;;;;0.00;0.00;;;18.20;99.90;;;;;;5112799;28;20356;-79
2022/04/09 03:43:06;;;;;;;3.58;0.68;;;18.30;99.90;;;;;;5086935;28;20035;-82
2022/04/09 03:45:32;;;;;;;13.52;12.73;;;17.70;99.90;;;;;;5098230;28;20085;-79
2022/04/09 03:48:00;;;;;;;0.00;0.00;;;17.80;99.90;;;;;;5097010;28;20376;-79
2022/04/09 03:50:27;;;;;;;1.08;0.98;;;18.10;99.90;;;;;;5075361;28;20390;-78
2022/04/09 03:52:53;;;;;;;1.33;0.73;;;18.30;99.90;;;;;;5096603;28;20185;-79
2022/04/09 03:55:19;;;;;;;0.38;0.38;;;18.20;99.90;;;;;;5098559;28;20024;-77
2022/04/09 03:57:46;;;;;;;0.00;0.00;;;18.40;99.90;;;;;;5096888;28;20028;-78
2022/04/09 04:00:17;;;;;;;0.75;0.43;;;18.60;99.90;;;;;;5098855;28;20024;-78
2022/04/09 04:02:44;;;;;;;7.90;7.25;;;18.40;99.90;;;;;;5095432;28;20027;-80
2022/04/09 04:05:10;;;;;;;11.07;4.03;;;18.70;99.90;;;;;;5084274;28;20024;-79
2022/04/09 04:07:36;;;;;;;1.88;0.73;;;18.80;99.90;;;;;;5077377;28;20119;-79
2022/04/09 04:10:04;;;;;;;0.00;0.00;;;18.20;99.90;;;;;;5096561;28;20593;-79
2022/04/09 04:12:31;;;;;;;0.00;0.00;;;18.20;99.90;;;;;;5104457;28;20024;-78
2022/04/09 04:14:57;;;;;;;0.00;0.00;;;18.50;99.90;;;;;;5078858;28;20028;-79
2022/04/09 04:17:23;;;;;;;0.13;0.13;;;18.60;99.90;;;;;;5101990;28;20053;-79
2022/04/09 04:19:50;;;;;;;23.05;2.08;;;18.80;99.90;;;;;;5086916;28;20028;-78
2022/04/09 04:22:18;;;;;;;0.57;0.55;;;19.00;99.90;;;;;;5101520;28;20484;-80
2022/04/09 04:24:44;;;;;;;6.85;1.08;;;19.10;99.90;;;;;;5111178;28;20032;-78
2022/04/09 04:27:10;;;;;;;1.15;0.77;;;19.20;99.90;;;;;;5104699;28;20024;-78
2022/04/09 04:29:37;;;;;;;0.30;0.20;;;19.00;99.90;;;;;;5110796;28;20035;-79
2022/04/09 04:32:03;;;;;;;2.58;2.38;;;19.00;99.90;;;;;;5098415;28;20102;-78
2022/04/09 04:34:29;;;;;;;0.20;0.20;;;19.00;99.90;;;;;;5106227;28;20052;-77
2022/04/09 04:36:55;;;;;;;23.23;3.45;;;18.90;99.90;;;;;;5120349;28;20049;-78
2022/04/09 04:39:22;;;;;;;24.60;12.38;;;19.20;99.90;;;;;;5127980;28;20019;-78
2022/04/09 04:41:49;;;;;;;0.10;0.10;;;19.20;99.90;;;;;;5110340;28;20099;-79
2022/04/09 04:44:15;;;;;;;7.38;6.72;;;19.30;99.90;;;;;;5082132;28;20032;-79
2022/04/09 04:46:41;;;;;;;1.27;0.93;;;19.50;99.90;;;;;;5096761;28;20020;-79
2022/04/09 04:49:07;;;;;;;0.20;0.20;;;19.50;99.90;;;;;;5097911;28;20028;-79
2022/04/09 04:51:33;;;;;;;2.35;1.60;;;19.70;99.90;;;;;;5113831;28;20055;-78
2022/04/09 04:54:02;;;;;;;0.90;0.90;;;19.50;99.90;;;;;;5088397;28;20030;-80
2022/04/09 04:56:28;;;;;;;14.50;2.72;;;19.70;99.90;;;;;;5112054;28;20039;-78
2022/04/09 04:58:55;;;;;;;0.00;0.00;;;19.90;99.90;;;;;;5090160;28;20372;-78
2022/04/09 05:01:21;;;;;;;0.30;0.30;;;20.00;99.90;;;;;;5100493;28;20115;-78
2022/04/09 05:03:48;;;;;;;3.40;2.72;;;19.90;99.90;;;;;;5099641;28;20089;-79
2022/04/09 05:06:14;;;;;;;0.45;0.45;;;20.00;99.90;;;;;;5108494;28;20477;-79
2022/04/09 05:08:40;;;;;;;0.25;0.25;;;20.30;99.90;;;;;;5106888;28;20023;-79
2022/04/09 05:11:06;;;;;;;0.45;0.45;;;20.40;99.90;;;;;;5082379;28;20059;-79
2022/04/09 05:13:32;;;;;;;0.00;0.00;;;20.40;99.90;;;;;;5080189;28;20020;-78
2022/04/09 05:15:58;;;;;;;11.68;10.57;;;20.00;99.90;;;;;;5094771;28;20371;-77
2022/04/09 05:18:25;;;;;;;7.38;2.28;;;19.70;99.90;;;;;;5109410;28;20604;-78
2022/04/09 05:20:51;;;;;;;3.78;3.65;;;19.90;99.90;;;;;;5097463;28;20433;-78
2022/04/09 05:23:18;;;;;;;7.47;1.65;;;20.10;99.90;;;;;;5103314;28;20091;-78
2022/04/09 05:25:44;;;;;;;8.45;0.93;;;19.90;99.90;;;;;;5080243;28;20121;-79
2022/04/09 05:28:10;;;;;;;0.00;0.00;;;19.60;99.90;;;;;;5114144;28;20485;-79
2022/04/09 05:30:36;;;;;;;0.00;0.00;;;19.90;99.90;;;;;;5109553;28;20032;-79
2022/04/09 05:33:03;;;;;;;4.88;4.47;;;20.00;99.90;;;;;;5099178;28;20036;-80
2022/04/09 05:35:35;;;;;;;2.72;1.85;;;19.70;99.90;;;;;;5081285;28;20085;-79
2022/04/09 05:38:03;;;;;;;1.08;1.02;;;19.90;99.90;;;;;;5083528;28;20372;-78
2022/04/09 05:40:30;;;;;;;25.60;15.32;;;20.10;99.90;;;;;;5114119;28;20054;-80
2022/04/09 05:42:56;;;;;;;0.30;0.30;;;20.20;99.90;;;;;;5089299;28;20480;-79
2022/04/09 05:45:23;;;;;;;4.93;4.68;;;20.30;99.90;;;;;;5099854;28;20534;-78
2022/04/09 05:47:49;;;;;;;0.03;0.00;;;20.50;99.90;;;;;;5083764;28;20432;-79
2022/04/09 05:50:15;;;;;;;0.65;0.63;;;20.00;99.90;;;;;;5099840;28;20081;-79
2022/04/09 05:52:42;;;;;;;0.00;0.00;;;20.10;99.90;;;;;;5082024;28;20039;-79
2022/04/09 05:55:09;;;;;;;4.18;1.15;;;20.30;99.90;;;;;;5098145;28;20024;-79
2022/04/09 05:57:35;;;;;;;5.65;5.20;;;20.40;99.90;;;;;;5103626;28;20458;-79
2022/04/09 06:00:04;;;;;;;0.00;0.00;;;20.50;99.90;;;;;;5101762;28;20020;-80
2022/04/09 06:02:30;;;;;;;0.00;0.00;;;20.50;99.90;;;;;;5084425;28;20051;-78
2022/04/09 06:04:57;;;;;;;7.63;2.63;;;20.50;99.90;;;;;;5082323;28;20077;-80
2022/04/09 06:07:26;;;;;;;1.02;1.02;;;20.80;99.90;;;;;;5084419;28;20019;-80
2022/04/09 06:09:53;;;;;;;0.55;0.55;;;20.50;99.90;;;;;;5097363;28;20510;-79
2022/04/09 06:12:19;;;;;;;0.00;0.00;;;20.50;99.90;;;;;;5098627;28;20035;-78
2022/04/09 06:14:45;;;;;;;0.25;0.25;;;20.80;99.90;;;;;;5089566;28;20056;-79
2022/04/09 06:17:11;;;;;;;0.25;0.25;;;20.70;99.90;;;;;;5111035;28;20371;-79
2022/04/09 06:19:38;;;;;;;2.83;1.45;;;20.90;99.90;;;;;;5101659;28;20461;-79
2022/04/09 06:22:04;;;;;;;0.00;0.00;;;20.60;99.90;;;;;;5080515;28;20024;-79
2022/04/09 06:24:30;;;;;;;0.00;0.00;;;20.60;99.90;;;;;;5092913;28;20136;-79
2022/04/09 06:26:56;;;;;;;1.83;1.13;;;20.90;99.90;;;;;;5091496;28;20023;-79
2022/04/09 06:29:22;;;;;;;0.00;0.00;;;20.80;99.90;;;;;;5095050;28;20023;-78
2022/04/09 06:31:49;;;;;;;2.22;2.08;;;;;;;;;;5100259;28;20475;-78
2022/04/09 06:34:15;;;;;;;0.45;0.45;;;20.90;98.50;;;;;;5103339;28;20062;-79
2022/04/09 06:36:41;;;;;;;0.47;0.47;;;21.10;98.50;;;;;;5095206;28;20028;-80
2022/04/09 06:39:08;;;;;;;14.55;13.68;;;21.10;97.30;;;;;;5106755;28;20420;-79
2022/04/09 06:41:35;;;;;;;0.22;0.10;;;21.30;96.10;;;;;;5082717;28;20532;-78
2022/04/09 06:44:01;;;;;;;0.63;0.63;;;21.30;96.30;;;;;;5080418;28;20028;-79
2022/04/09 06:46:27;;;;;;;0.43;0.43;;;21.30;96.90;;;;;;5102019;28;20099;-78
2022/04/09 06:48:53;;;;;;;4.72;2.20;;;21.00;94.40;;;;;;5108376;28;20042;-79
2022/04/09 06:51:20;;;;;;;3.72;1.38;;;20.90;94.50;;;;;;5081854;28;20027;-79
2022/04/09 06:53:49;;;;;;;0.00;0.00;;;20.90;95.60;;;;;;5084374;28;20062;-79
2022/04/09 06:56:15;;;;;;;0.20;0.20;;;21.00;94.50;;;;;;5084531;28;20124;-81
2022/04/09 06:58:41;;;;;;;0.28;0.28;;;21.00;95.60;;;;;;5089959;28;20019;-79
2022/04/09 07:01:08;;;;;;;0.00;0.00;;;20.80;96.20;;;;;;5094783;28;20016;-78
2022/04/09 07:03:34;;;;;;;0.30;0.30;;;21.00;96.10;;;;;;5099846;28;20035;-78
2022/04/09 07:06:00;;;;;;;0.43;0.40;;;21.00;95.60;;;;;;5102647;28;20050;-80
2022/04/09 07:08:26;;;;;;;0.00;0.00;;;20.80;95.20;;;;;;5102382;28;20028;-79
2022/04/09 07:10:52;;;;;;;1.95;1.85;;;20.60;95.50;;;;;;5089044;28;20422;-79
2022/04/09 07:13:18;;;;;;;2.55;0.57;;;20.50;95.90;;;;;;5087439;28;20019;-79
2022/04/09 07:15:44;;;;;;;0.00;0.00;;;20.50;96.20;;;;;;5102195;28;20062;-78
2022/04/09 07:18:10;;;;;;;0.10;0.10;;;20.30;96.20;;;;;;5103665;28;20024;-79
2022/04/09 07:20:37;;;;;;;3.17;0.38;;;20.20;96.80;;;;;;5090990;28;20031;-79
2022/04/09 07:23:06;;;;;;;0.70;0.70;;;20.20;97.00;;;;;;5105960;28;20024;-79
2022/04/09 07:25:34;;;;;;;0.25;0.25;;;20.10;98.50;;;;;;5129609;28;20067;-79
2022/04/09 07:28:00;;;;;;;0.00;0.00;;;20.00;99.10;;;;;;5107397;28;20048;-79
2022/04/09 07:30:29;;;;;;;0.10;0.10;;;20.00;99.00;;;;;;5086452;28;21472;-80
2022/04/09 07:32:57;;;;;;;3.42;2.20;;;19.60;99.90;;;;;;5101431;28;20043;-79
2022/04/09 07:35:23;;;;;;;0.30;0.30;;;19.80;99.90;;;;;;5072158;28;20016;-79
2022/04/09 07:37:55;;;;;;;3.00;2.30;;;19.80;99.60;;;;;;5087612;28;20020;-79
2022/04/09 07:40:28;;;;;;;0.00;0.00;;;20.00;99.80;;;;;;5103898;28;20439;-79
2022/04/09 07:42:55;;;;;;;1.85;0.60;;;19.80;99.50;;;;;;5088476;28;20111;-81
2022/04/09 07:45:21;;;;;;;0.60;0.60;;;19.50;99.90;;;;;;5092515;28;20024;-78
2022/04/09 07:47:52;;;;;;;7.47;5.15;;;19.60;99.90;;;;;;5099793;28;20032;-79
2022/04/09 07:50:18;;;;;;;3.25;3.00;;;19.80;99.90;;;;;;5085779;28;20473;-78
2022/04/09 07:52:44;;;;;;;0.00;0.00;;;20.00;99.90;;;;;;5097954;28;20032;-78
2022/04/09 07:55:16;;;;;;;0.00;0.00;;;20.20;99.90;;;;;;5084769;28;20020;-78
2022/04/09 07:57:50;;;;;;;0.45;0.45;;;20.40;99.70;;;;;;5102089;28;20011;-78
2022/04/09 08:00:20;;;;;;;0.00;0.00;;;20.60;99.80;;;;;;5087093;28;20074;-79
2022/04/09 08:02:46;;;;;;;0.08;0.08;;;20.80;99.90;;;;;;5105356;28;20028;-79
2022/04/09 08:05:13;;;;;;;0.00;0.00;;;20.70;99.90;;;;;;5102732;28;20015;-79
2022/04/09 08:07:42;;;;;;;28.30;26.45;;;20.70;99.90;;;;;;5085829;28;20031;-77
2022/04/09 08:10:11;;;;;;;0.93;0.73;;;20.50;99.90;;;;;;5099103;28;20039;-80
2022/04/09 08:12:38;;;;;;;2.30;2.20;;;20.20;99.90;;;;;;5084189;28;20752;-80
2022/04/09 08:15:05;;;;;;;0.60;0.60;;;19.70;99.90;;;;;;5102063;28;20023;-79
2022/04/09 08:17:31;;;;;;;0.55;0.55;;;19.40;99.90;;;;;;5099089;28;20095;-78
2022/04/09 08:20:00;;;;;;;0.00;0.00;;;19.50;99.90;;;;;;5103761;28;20358;-79
2022/04/09 08:22:27;;;;;;;13.38;8.35;;;19.80;99.90;;;;;;5099716;28;20054;-79
2022/04/09 08:24:53;;;;;;;0.00;0.00;;;19.90;99.90;;;;;;5077154;28;20032;-80
2022/04/09 08:27:29;;;;;;;0.00;0.00;;;19.30;99.90;;;;;;5102718;28;20034;-80
2022/04/09 08:29:58;;;;;;;0.35;0.20;;;19.00;99.90;;;;;;5104833;28;20499;-81
2022/04/09 08:32:25;;;;;;;1.38;1.27;;;19.00;99.90;;;;;;5115679;28;20526;-79
2022/04/09 08:34:53;;;;;;;0.30;0.28;;;19.30;99.90;;;;;;5114826;28;20035;-79
2022/04/09 08:37:21;;;;;;;0.70;0.70;;;19.30;99.90;;;;;;5090183;28;20035;-80
2022/04/09 08:39:47;;;;;;;0.03;0.03;;;19.30;99.90;;;;;;5106398;28;20069;-80
2022/04/09 08:42:14;;;;;;;1.98;0.90;;;19.40;99.90;;;;;;5084827;28;20020;-79
2022/04/09 08:44:41;;;;;;;0.00;0.00;;;19.30;99.90;;;;;;5105584;28;20104;-79
2022/04/09 08:47:08;;;;;;;0.00;0.00;;;19.60;99.90;;;;;;5103315;28;20024;-79
2022/04/09 08:49:40;;;;;;;0.00;0.00;;;19.30;99.90;;;;;;5080228;28;20038;-79
2022/04/09 08:52:10;;;;;;;0.10;0.10;;;19.70;99.90;;;;;;5108924;28;20020;-80
2022/04/09 08:54:40;;;;;;;6.80;6.38;;;20.10;99.90;;;;;;5114882;28;20124;-80
2022/04/09 08:57:07;;;;;;;2.10;1.90;;;19.90;99.90;;;;;;5104230;28;20072;-79
2022/04/09 08:59:34;;;;;;;0.00;0.00;;;20.00;99.90;;;;;;5099648;28;20059;-80
2022/04/09 09:02:00;;;;;;;0.73;0.73;;;20.30;99.90;;;;;;5100831;28;20124;-79
2022/04/09 09:04:26;;;;;;;1.25;1.13;;;20.60;99.90;;;;;;5102171;28;20103;-80
2022/04/09 09:06:52;;;;;;;9.90;8.88;;;19.90;99.90;;;;;;5107158;28;20367;-80
2022/04/09 09:09:32;;;;;;;5.05;4.75;;;19.60;99.90;;;;;;5083059;28;20028;-82
2022/04/09 09:12:00;;;;;;;4.45;3.08;;;19.60;99.90;;;;;;5107278;28;20079;-77
2022/04/09 09:14:36;;;;;;;10.65;2.30;;;20.00;99.90;;;;;;5095763;28;20027;-80
2022/04/09 09:17:13;;;;;;;1.35;0.70;;;19.70;99.90;;;;;;5102238;28;20031;-79
2022/04/09 09:19:50;;;;;;;0.10;0.10;;;19.90;99.90;;;;;;5097012;28;20031;-78
2022/04/09 09:22:18;;;;;;;0.57;0.55;;;20.10;99.90;;;;;;5101781;28;20024;-81
2022/04/09 09:25:00;;;;;;;0.85;0.38;;;20.20;99.90;;;;;;5098668;28;20027;-80
2022/04/09 09:27:27;;;;;;;0.43;0.25;;;19.70;99.90;;;;;;5096517;28;20310;-79
2022/04/09 09:29:55;;;;;;;5.63;0.85;;;20.20;99.90;;;;;;5098091;28;20077;-79
2022/04/09 09:32:26;;;;;;;23.38;12.23;;;20.20;99.90;;;;;;5105959;28;20084;-81
2022/04/09 09:34:56;;;;;;;0.55;0.47;;;20.20;99.90;;;;;;5106394;28;20044;-80
2022/04/09 09:37:24;;;;;;;3.72;0.47;;;20.30;99.90;;;;;;5113353;28;20406;-80
2022/04/09 09:39:51;;;;;;;0.00;0.00;;;20.50;99.90;;;;;;5078748;28;20079;-79
2022/04/09 09:42:28;;;;;;;2.17;1.83;;;20.50;99.90;;;;;;5082426;28;20465;-80
2022/04/09 09:44:55;;;;;;;1.00;1.00;;;20.00;99.90;;;;;;5107144;28;20027;-79
2022/04/09 09:47:21;;;;;;;4.22;2.35;;;19.40;99.90;;;;;;5106885;28;20027;-79
2022/04/09 09:49:55;;;;;;;9.32;1.17;;;19.10;99.90;;;;;;5085273;28;20031;-79
2022/04/09 09:52:27;;;;;;;4.55;1.77;;;18.90;99.90;;;;;;5102673;28;20386;-81
2022/04/09 09:54:58;;;;;;;3.60;1.40;;;18.80;99.90;;;;;;5102778;28;20016;-81
2022/04/09 09:57:27;;;;;;;7.45;2.70;;;18.70;99.90;;;;;;5103595;28;20077;-78
2022/04/09 09:59:59;;;;;;;2.22;1.42;;;18.40;99.90;;;;;;5105101;28;20011;-80
2022/04/09 10:02:26;;;;;;;0.60;0.57;;;17.10;99.90;;;;;;5104072;28;20011;-79
2022/04/09 10:04:53;;;;;;;4.55;3.53;;;15.70;99.90;;;;;;5109085;28;20092;-81
2022/04/09 10:07:22;;;;;;;11.98;3.63;;;15.10;99.90;;;;;;5107165;28;20126;-79
2022/04/09 10:09:49;;;;;;;1.95;1.75;;;14.60;99.90;;;;;;5100911;28;20024;-79
2022/04/09 10:12:21;;;;;;;0.03;0.03;;;14.30;99.90;;;;;;5118882;28;20008;-80
2022/04/09 10:14:52;;;;;;;2.30;1.08;;;14.00;99.90;;;;;;5109942;28;20043;-77
2022/04/09 10:17:19;;;;;;;1.70;0.57;;;14.00;99.90;;;;;;5100532;28;20159;-79
2022/04/09 10:19:54;;;;;;;0.03;0.03;;;14.00;99.90;;;;;;5081131;28;20093;-79
2022/04/09 10:22:22;;;;;;;2.10;0.68;;;13.50;99.90;;;;;;5086071;28;20111;-79
2022/04/09 10:24:49;;;;;;;6.85;4.30;;;13.50;99.90;;;;;;5080550;28;20504;-79
2022/04/09 10:27:42;;;;;;;0.30;0.30;;;13.40;99.90;;;;;;5085925;28;20027;-79
2022/04/09 10:30:15;;;;;;;2.17;0.28;;;13.60;99.90;;;;;;5084799;28;20027;-80
2022/04/09 10:32:47;;;;;;;0.38;0.38;;;13.70;99.90;;;;;;5101524;28;20046;-80
2022/04/09 10:35:23;;;;;;;0.00;0.00;;;13.80;99.90;;;;;;5084133;28;20052;-80
2022/04/09 10:38:14;;;;;;;0.63;0.63;;;13.80;99.90;;;;;;5083626;28;20118;-80
2022/04/09 10:40:43;;;;;;;0.00;0.00;;;13.90;99.90;;;;;;5101332;28;20023;-80
2022/04/09 10:43:33;;;;;;;0.10;0.10;;;14.00;99.90;;;;;;5101564;28;20108;-80
2022/04/09 10:46:02;;;;;;;2.78;0.55;;;14.30;99.90;;;;;;5096926;28;20031;-80
2022/04/09 10:48:33;;;;;;;0.10;0.10;;;14.50;99.90;;;;;;5098194;28;20028;-79
2022/04/09 10:51:04;;;;;;;0.13;0.13;;;14.80;99.90;;;;;;5096291;28;20088;-78
2022/04/09 10:53:43;;;;;;;3.88;3.72;;;14.90;99.90;;;;;;5103934;28;20028;-78
2022/04/09 10:56:24;;;;;;;0.63;0.45;;;14.90;99.90;;;;;;5085781;28;20024;-80
2022/04/09 10:59:18;;;;;;;0.00;0.00;;;15.00;99.90;;;;;;5093926;28;20016;-78
2022/04/09 11:01:50;;;;;;;0.00;0.00;;;14.80;99.90;;;;;;5099261;28;20482;-80
2022/04/09 11:07:10;;;;;;;18.13;16.58;;;15.10;99.90;;;;;;5094508;28;20035;-80
2022/04/09 11:10:01;;;;;;;0.00;0.00;;;15.30;99.90;;;;;;5100088;28;20283;-80
2022/04/09 11:12:40;;;;;;;8.30;7.50;;;15.20;99.90;;;;;;5071735;28;20032;-80
2022/04/09 11:15:16;;;;;;;0.00;0.00;;;15.40;99.90;;;;;;5079553;28;20027;-80
2022/04/09 11:17:47;;;;;;;0.10;0.10;;;15.10;99.90;;;;;;5093806;28;20047;-80
2022/04/09 11:20:23;;;;;;;1.10;1.05;;;14.80;99.90;;;;;;5095772;28;20125;-78
2022/04/09 11:22:55;;;;;;;0.00;0.00;;;15.00;99.90;;;;;;5100760;28;20026;-79
2022/04/09 11:25:29;;;;;;;0.52;0.52;;;15.00;99.90;;;;;;5079464;28;20047;-79
2022/04/09 11:28:06;;;;;;;0.10;0.10;;;15.30;99.90;;;;;;5077802;28;20048;-80
2022/04/09 11:30:33;;;;;;;0.20;0.20;;;15.40;99.90;;;;;;5095740;28;20027;-81
2022/04/09 11:32:59;;;;;;;0.10;0.10;;;15.40;99.90;;;;;;5103893;28;20489;-78
2022/04/09 11:35:25;;;;;;;0.00;0.00;;;15.20;99.90;;;;;;5079282;28;20147;-77
2022/04/09 11:37:53;;;;;;;0.00;0.00;;;15.00;99.90;;;;;;5097842;28;20044;-78
2022/04/09 11:40:20;;;;;;;0.00;0.00;;;15.30;99.90;;;;;;5096268;28;20068;-79
2022/04/09 11:42:56;;;;;;;0.00;0.00;;;15.70;99.90;;;;;;5080358;28;20024;-79
2022/04/09 11:45:24;;;;;;;0.00;0.00;;;16.10;99.90;;;;;;5085875;28;20028;-79
2022/04/09 11:47:58;;;;;;;0.00;0.00;;;16.30;99.90;;;;;;5084853;28;20089;-80
2022/04/09 11:50:25;;;;;;;0.00;0.00;;;16.40;99.90;;;;;;5097721;28;20124;-80
2022/04/09 11:52:54;;;;;;;0.00;0.00;;;16.20;99.90;;;;;;5101330;28;20482;-81
2022/04/09 11:55:20;;;;;;;5.68;0.77;;;16.50;99.90;;;;;;5086340;28;20034;-81
2022/04/09 11:57:54;;;;;;;0.10;0.10;;;16.30;99.90;;;;;;5082504;28;20490;-79
2022/04/09 12:00:30;;;;;;;2.10;1.98;;;16.30;99.90;;;;;;5066941;28;20410;-86
2022/04/09 12:03:05;;;;;;;0.00;0.00;;;16.10;99.90;;;;;;5089427;28;20072;-83
2022/04/09 12:05:39;;;;;;;1.45;1.40;;;15.70;99.90;;;;;;5088541;28;20035;-80
2022/04/09 12:08:18;;;;;;;2.00;0.90;;;15.80;99.90;;;;;;5091629;28;20470;-79
2022/04/09 12:10:55;;;;;;;4.10;3.75;;;16.00;99.90;;;;;;5102838;28;20066;-80
2022/04/09 12:13:28;;;;;;;1.27;1.27;;;15.50;99.90;;;;;;5106621;28;20023;-81
2022/04/09 12:16:00;;;;;;;0.20;0.00;;;15.60;99.90;;;;;;5093460;28;20024;-80
2022/04/09 12:18:28;;;;;;;0.00;0.00;;;15.50;99.90;;;;;;5108579;28;20039;-83
2022/04/09 12:20:55;;;;;;;2.45;2.25;;;15.20;99.90;;;;;;5087636;28;20023;-81
2022/04/09 12:23:32;;;;;;;0.00;0.00;;;15.40;99.90;;;;;;5085117;28;20030;-81
2022/04/09 12:25:59;;;;;;;0.00;0.00;;;15.40;99.90;;;;;;5099636;28;20028;-82
2022/04/09 12:28:31;;;;;;;0.30;0.25;;;15.70;99.90;;;;;;5104154;28;20024;-80
2022/04/09 12:31:00;;;;;;;0.13;0.13;;;15.50;99.90;;;;;;5079775;28;20069;-80
2022/04/09 12:33:26;;;;;;;0.00;0.00;;;15.30;99.90;;;;;;5101749;28;20487;-81
2022/04/09 12:36:05;;;;;;;2.13;2.00;;;15.30;99.90;;;;;;5100545;28;20134;-78
2022/04/09 12:38:41;;;;;;;1.00;0.63;;;15.20;99.90;;;;;;5081303;28;20420;-79
2022/04/09 12:41:08;;;;;;;0.00;0.00;;;15.10;99.90;;;;;;5102079;28;20016;-82
2022/04/09 12:43:35;;;;;;;0.00;0.00;;;14.90;99.90;;;;;;5083251;28;20110;-83
2022/04/09 12:46:06;;;;;;;0.77;0.40;;;14.90;99.90;;;;;;5099518;28;20027;-81
2022/04/09 12:48:49;;;;;;;2.17;1.00;;;14.90;99.90;;;;;;5100864;28;20038;-81
2022/04/09 12:51:30;;;;;;;1.00;0.95;;;14.70;99.90;;;;;;5086794;28;20024;-80
2022/04/09 12:53:56;;;;;;;0.82;0.82;;;14.90;99.90;;;;;;5104678;28;20031;-79
2022/04/09 12:56:26;;;;;;;0.55;0.55;;;14.90;99.90;;;;;;5088758;28;20031;-81
2022/04/09 12:58:52;;;;;;;0.20;0.20;;;14.60;99.90;;;;;;5117304;28;20636;-81
2022/04/09 13:01:18;;;;;;;0.60;0.60;;;14.20;99.90;;;;;;5112653;28;20052;-80
2022/04/09 13:03:44;;;;;;;1.70;0.85;;;14.40;99.90;;;;;;5086901;28;20040;-81
2022/04/09 13:06:10;;;;;;;0.80;0.57;;;14.50;99.90;;;;;;5083369;28;20115;-79
2022/04/09 13:08:39;;;;;;;5.60;2.25;;;14.60;99.90;;;;;;5090985;28;20359;-79
2022/04/09 13:11:13;;;;;;;4.97;4.03;;;14.10;99.90;;;;;;5104977;28;20462;-80
2022/04/09 13:13:41;;;;;;;2.28;1.65;;;14.20;99.90;;;;;;5098524;28;20024;-80
2022/04/09 13:16:09;;;;;;;2.42;1.13;;;14.30;99.90;;;;;;5098510;28;20026;-80
2022/04/09 13:18:38;;;;;;;0.47;0.47;;;14.40;99.90;;;;;;5102943;28;20030;-80
2022/04/09 13:21:04;;;;;;;2.72;2.25;;;14.10;99.90;;;;;;5103375;28;20013;-80
2022/04/09 13:23:35;;;;;;;10.02;4.63;;;14.10;99.90;;;;;;5101291;28;20031;-81
2022/04/09 13:26:01;;;;;;;4.53;2.58;;;14.20;99.90;;;;;;5098923;28;20407;-81
2022/04/09 13:28:29;;;;;;;4.30;3.28;;;14.20;99.90;;;;;;5101076;28;20020;-79
2022/04/09 13:30:55;;;;;;;32.40;4.28;;;14.10;99.90;;;;;;5101240;28;20019;-80
2022/04/09 13:33:21;;;;;;;14.45;8.13;;;13.90;99.90;;;;;;5101984;28;20051;-80
2022/04/09 13:35:47;;;;;;;4.22;3.53;;;13.90;99.90;;;;;;5101054;28;20043;-80
2022/04/09 13:38:15;;;;;;;22.65;6.88;;;13.90;99.90;;;;;;5101708;28;20549;-81
2022/04/09 13:40:42;;;;;;;4.07;3.13;;;13.90;99.90;;;;;;5103286;28;20096;-81
2022/04/09 13:43:08;;;;;;;5.05;3.72;;;13.70;99.90;;;;;;5103013;28;20012;-81
2022/04/09 13:45:34;;;;;;;8.27;4.57;;;13.80;99.90;;;;;;5102291;28;20050;-80
2022/04/09 13:48:00;;;;;;;3.67;3.33;;;13.80;99.90;;;;;;5101483;28;20027;-80
2022/04/09 13:50:27;;;;;;;9.75;5.55;;;13.70;99.90;;;;;;5100244;28;20049;-80
2022/04/09 13:52:53;;;;;;;12.30;7.55;;;13.60;99.90;;;;;;5086073;28;20035;-79
2022/04/09 13:55:19;;;;;;;10.07;6.22;;;13.60;99.90;;;;;;5099407;28;20103;-79
2022/04/09 13:57:45;;;;;;;14.07;7.60;;;13.60;99.90;;;;;;5082968;28;20054;-79
2022/04/09 14:00:14;;;;;;;9.70;8.00;;;13.40;99.90;;;;;;5097649;28;20382;-79
2022/04/09 14:02:40;;;;;;;6.75;3.03;;;13.40;99.90;;;;;;5082468;28;20108;-79
2022/04/09 14:05:07;;;;;;;17.08;9.68;;;13.40;99.90;;;;;;5102397;28;20042;-80
2022/04/09 14:07:33;;;;;;;12.07;8.38;;;13.50;99.90;;;;;;5104840;28;20032;-80
2022/04/09 14:10:00;;;;;;;5.20;4.50;;;13.40;99.90;;;;;;5098413;28;20023;-79
2022/04/09 14:12:27;;;;;;;16.45;9.30;;;13.50;99.90;;;;;;5083189;28;20036;-81
2022/04/09 14:14:53;;;;;;;12.63;6.00;;;13.50;99.90;;;;;;5098313;28;20055;-80
2022/04/09 14:17:19;;;;;;;8.35;3.70;;;13.50;99.90;;;;;;5099028;28;20382;-81
2022/04/09 14:19:47;;;;;;;5.95;5.35;;;13.40;99.90;;;;;;5100428;28;20028;-81
2022/04/09 14:22:14;;;;;;;16.10;7.00;;;13.40;99.90;;;;;;5085189;28;20080;-81
2022/04/09 14:24:41;;;;;;;5.15;2.40;;;13.50;99.90;;;;;;5086485;28;20031;-81
2022/04/09 14:27:07;;;;;;;7.25;4.35;;;13.50;99.90;;;;;;5085064;28;20024;-80
2022/04/09 14:29:34;;;;;;;13.82;8.65;;;13.50;99.90;;;;;;5089568;28;20026;-80
2022/04/09 14:32:01;;;;;;;13.38;7.57;;;13.40;99.90;;;;;;5101981;28;20020;-79
2022/04/09 14:34:27;;;;;;;26.27;14.65;;;13.50;99.90;;;;;;5100240;28;20043;-80
2022/04/09 14:36:53;;;;;;;16.63;9.68;;;13.50;99.90;;;;;;5109238;28;20092;-80
2022/04/09 14:39:19;;;;;;;21.20;7.18;;;13.50;99.90;;;;;;5086256;28;20016;-81
2022/04/09 14:41:46;;;;;;;10.27;7.97;;;13.50;99.90;;;;;;5105018;28;20030;-81
2022/04/09 14:44:12;;;;;;;32.75;16.92;;;13.50;99.90;;;;;;5084351;28;20098;-80
2022/04/09 14:46:38;;;;;;;26.20;11.57;;;13.40;99.90;;;;;;5098572;28;20470;-81